createdAt,value
2024-02-04T00:00:19.557Z,12.20
2024-02-04T00:02:47.676Z,12.20
2024-02-04T00:05:16.286Z,12.20
2024-02-04T00:07:45.685Z,12.20
2024-02-04T00:10:13.841Z,12.20
2024-02-04T00:12:41.921Z,12.20
2024-02-04T00:15:10.650Z,12.20
2024-02-04T00:17:38.804Z,12.20
2024-02-04T00:20:08.878Z,12.20
2024-02-04T00:22:36.914Z,12.20
2024-02-04T00:25:07.131Z,12.20
2024-02-04T00:27:35.528Z,12.20
2024-02-04T00:30:03.700Z,12.20
2024-02-04T00:32:31.791Z,12.20
2024-02-04T00:34:59.912Z,12.20
2024-02-04T00:37:27.992Z,12.20
2024-02-04T00:39:56.127Z,12.30
2024-02-04T00:42:25.660Z,12.20
2024-02-04T00:44:53.698Z,12.20
2024-02-04T00:47:22.021Z,12.20
2024-02-04T00:49:50.335Z,12.20
2024-02-04T00:52:18.385Z,12.20
2024-02-04T00:54:46.654Z,12.20
2024-02-04T00:57:14.660Z,12.20
2024-02-04T00:59:44.429Z,12.20
2024-02-04T01:02:12.633Z,12.20
2024-02-04T01:04:41.604Z,12.20
2024-02-04T01:07:09.907Z,12.20
2024-02-04T01:09:38.038Z,12.20
2024-02-04T01:12:06.376Z,12.20
2024-02-04T01:14:34.447Z,12.20
2024-02-04T01:17:03.956Z,12.20
2024-02-04T01:19:32.075Z,12.20
2024-02-04T01:22:00.353Z,12.20
2024-02-04T01:24:28.398Z,12.20
2024-02-04T01:26:56.735Z,12.20
2024-02-04T01:29:24.975Z,12.20
2024-02-04T01:31:53.005Z,12.20
2024-02-04T01:34:22.456Z,12.10
2024-02-04T01:36:50.594Z,12.20
2024-02-04T01:39:18.618Z,12.10
2024-02-04T01:41:46.940Z,12.10
2024-02-04T01:44:16.897Z,12.10
2024-02-04T01:46:45.415Z,12.10
2024-02-04T01:49:13.681Z,12.10
2024-02-04T01:51:43.760Z,12.10
2024-02-04T01:54:11.962Z,12.10
2024-02-04T01:56:40.091Z,12.10
2024-02-04T01:59:08.936Z,12.20
2024-02-04T02:01:37.361Z,12.10
2024-02-04T02:04:07.021Z,12.10
2024-02-04T02:06:36.538Z,12.10
2024-02-04T02:09:07.167Z,12.10
2024-02-04T02:11:42.233Z,12.10
2024-02-04T02:14:15.557Z,12.10
2024-02-04T02:16:46.783Z,12.10
2024-02-04T02:19:33.122Z,12.20
2024-02-04T02:22:08.554Z,12.10
2024-02-04T02:24:41.074Z,12.10
2024-02-04T02:27:10.590Z,12.10
2024-02-04T02:29:38.889Z,12.10
2024-02-04T02:32:07.868Z,12.10
2024-02-04T02:34:39.368Z,12.10
2024-02-04T02:37:18.285Z,12.20
2024-02-04T02:39:57.481Z,12.10
2024-02-04T02:42:27.610Z,12.10
2024-02-04T02:44:56.476Z,12.10
2024-02-04T02:47:25.794Z,12.10
2024-02-04T02:49:55.810Z,12.10
2024-02-04T02:52:24.189Z,12.20
2024-02-04T02:54:53.568Z,12.20
2024-02-04T02:57:21.647Z,12.20
2024-02-04T02:59:49.698Z,12.20
2024-02-04T03:02:17.913Z,12.20
2024-02-04T03:04:46.127Z,12.20
2024-02-04T03:07:14.694Z,12.20
2024-02-04T03:09:42.816Z,12.20
2024-02-04T03:12:13.052Z,12.20
2024-02-04T03:14:41.313Z,12.20
2024-02-04T03:17:09.356Z,12.20
2024-02-04T03:19:38.027Z,12.20
2024-02-04T03:22:06.556Z,12.20
2024-02-04T03:24:34.885Z,12.20
2024-02-04T03:27:03.648Z,12.20
2024-02-04T03:29:33.045Z,12.20
2024-02-04T03:32:01.407Z,12.20
2024-02-04T03:34:29.905Z,12.20
2024-02-04T03:36:58.464Z,12.20
2024-02-04T03:39:27.340Z,12.20
2024-02-04T03:41:55.457Z,12.20
2024-02-04T03:44:23.512Z,12.10
2024-02-04T03:46:53.574Z,12.20
2024-02-04T03:49:21.900Z,12.20
2024-02-04T03:51:50.093Z,12.10
2024-02-04T03:54:20.113Z,12.20
2024-02-04T03:56:48.684Z,12.20
2024-02-04T03:59:16.735Z,12.40
2024-02-04T04:01:49.655Z,12.20
2024-02-04T04:04:19.381Z,12.20
2024-02-04T04:06:49.625Z,12.20
2024-02-04T04:09:17.834Z,12.20
2024-02-04T04:11:45.978Z,12.10
2024-02-04T04:14:14.032Z,12.20
2024-02-04T04:16:42.106Z,12.20
2024-02-04T04:19:10.336Z,12.20
2024-02-04T04:21:41.730Z,12.20
2024-02-04T04:24:10.350Z,12.20
2024-02-04T04:26:38.767Z,12.20
2024-02-04T04:29:06.787Z,12.20
2024-02-04T04:31:34.809Z,12.20
2024-02-04T04:34:03.017Z,12.20
2024-02-04T04:36:31.195Z,12.20
2024-02-04T04:39:00.703Z,12.20
2024-02-04T04:41:28.722Z,12.20
2024-02-04T04:43:58.129Z,12.20
2024-02-04T04:46:26.230Z,12.20
2024-02-04T04:48:54.601Z,12.20
2024-02-04T04:51:22.796Z,12.20
2024-02-04T04:53:50.853Z,12.20
2024-02-04T04:56:20.210Z,12.20
2024-02-04T04:58:48.264Z,12.20
2024-02-04T05:01:16.434Z,12.20
2024-02-04T05:03:44.802Z,12.20
2024-02-04T05:06:12.905Z,12.20
2024-02-04T05:08:40.926Z,12.20
2024-02-04T05:11:09.040Z,12.20
2024-02-04T05:13:40.997Z,12.20
2024-02-04T05:16:09.130Z,12.30
2024-02-04T05:18:37.598Z,12.20
2024-02-04T05:21:06.166Z,12.20
2024-02-04T05:23:34.341Z,12.20
2024-02-04T05:26:05.665Z,12.20
2024-02-04T05:28:34.197Z,12.20
2024-02-04T05:31:05.233Z,12.20
2024-02-04T05:33:33.817Z,12.20
2024-02-04T05:36:01.948Z,12.20
2024-02-04T05:38:29.981Z,12.30
2024-02-04T05:40:58.031Z,12.20
2024-02-04T05:43:26.130Z,12.30
2024-02-04T05:45:54.207Z,12.30
2024-02-04T05:48:23.780Z,12.30
2024-02-04T05:50:51.962Z,12.30
2024-02-04T05:53:20.171Z,12.30
2024-02-04T05:55:49.280Z,12.30
2024-02-04T05:58:17.467Z,12.30
2024-02-04T06:00:45.547Z,12.50
2024-02-04T06:03:13.730Z,12.30
2024-02-04T06:05:43.272Z,12.30
2024-02-04T06:08:11.386Z,12.30
2024-02-04T06:10:39.423Z,12.30
2024-02-04T06:13:07.636Z,12.30
2024-02-04T06:15:37.169Z,12.30
2024-02-04T06:18:05.663Z,12.50
2024-02-04T06:20:33.919Z,12.30
2024-02-04T06:23:03.419Z,12.30
2024-02-04T06:25:31.660Z,12.30
2024-02-04T06:27:59.971Z,12.30
2024-02-04T06:30:29.409Z,12.30
2024-02-04T06:32:57.944Z,12.30
2024-02-04T06:35:26.186Z,12.30
2024-02-04T06:37:54.550Z,12.30
2024-02-04T06:40:24.014Z,12.30
2024-02-04T06:42:52.086Z,12.30
2024-02-04T06:45:20.086Z,12.30
2024-02-04T06:47:48.135Z,12.30
2024-02-04T06:50:17.095Z,12.00
2024-02-04T06:52:46.676Z,12.30
2024-02-04T06:55:15.061Z,12.30
2024-02-04T06:57:44.551Z,12.30
2024-02-04T07:00:14.114Z,12.30
2024-02-04T07:02:42.171Z,12.30
2024-02-04T07:05:11.632Z,12.30
2024-02-04T07:07:39.804Z,12.30
2024-02-04T07:10:09.256Z,12.30
2024-02-04T07:12:37.512Z,12.30
2024-02-04T07:15:07.698Z,12.30
2024-02-04T07:17:36.112Z,12.30
2024-02-04T07:20:04.870Z,12.30
2024-02-04T07:22:35.345Z,12.30
2024-02-04T07:25:05.835Z,12.30
2024-02-04T07:27:34.235Z,12.30
2024-02-04T07:30:04.619Z,12.30
2024-02-04T07:32:35.525Z,12.30
2024-02-04T07:35:04.033Z,12.30
2024-02-04T07:37:32.176Z,12.30
2024-02-04T07:40:02.371Z,12.30
2024-02-04T07:42:30.568Z,12.30
2024-02-04T07:44:59.128Z,12.30
2024-02-04T07:47:27.371Z,12.30
2024-02-04T07:49:57.031Z,12.30
2024-02-04T07:52:25.258Z,12.30
2024-02-04T07:54:53.528Z,12.30
2024-02-04T07:57:21.547Z,12.30
2024-02-04T07:59:49.701Z,12.30
2024-02-04T08:02:17.775Z,12.30
2024-02-04T08:04:45.983Z,12.30
2024-02-04T08:07:15.749Z,12.30
2024-02-04T08:09:43.910Z,12.30
2024-02-04T08:12:11.987Z,12.30
2024-02-04T08:14:40.040Z,12.30
2024-02-04T08:17:08.107Z,12.30
2024-02-04T08:19:36.232Z,12.30
2024-02-04T08:22:05.262Z,12.30
2024-02-04T08:24:34.741Z,12.30
2024-02-04T08:27:02.882Z,12.30
2024-02-04T08:29:30.891Z,12.30
2024-02-04T08:31:58.945Z,12.30
2024-02-04T08:34:27.310Z,12.30
2024-02-04T08:36:55.926Z,12.30
2024-02-04T08:39:24.206Z,12.30
2024-02-04T08:41:53.853Z,12.30
2024-02-04T08:44:31.667Z,12.30
2024-02-04T08:47:04.148Z,12.30
2024-02-04T08:49:32.577Z,12.50
2024-02-04T08:52:00.957Z,12.30
2024-02-04T08:54:29.216Z,12.30
2024-02-04T08:56:58.778Z,12.30
2024-02-04T08:59:26.863Z,12.30
2024-02-04T09:01:55.569Z,12.30
2024-02-04T09:04:24.111Z,12.30
2024-02-04T09:06:52.383Z,12.30
2024-02-04T09:09:20.554Z,12.30
2024-02-04T09:11:48.615Z,12.60
2024-02-04T09:14:18.035Z,12.30
2024-02-04T09:16:46.166Z,12.30
2024-02-04T09:19:14.912Z,12.30
2024-02-04T09:21:43.254Z,12.30
2024-02-04T09:24:12.362Z,12.30
2024-02-04T09:26:40.469Z,12.30
2024-02-04T09:29:08.601Z,12.50
2024-02-04T09:31:38.217Z,12.40
2024-02-04T09:34:06.695Z,12.40
2024-02-04T09:36:36.031Z,12.40
2024-02-04T09:39:04.698Z,12.40
2024-02-04T09:41:32.977Z,12.40
2024-02-04T09:44:04.085Z,12.40
2024-02-04T09:46:32.836Z,12.40
2024-02-04T09:49:04.041Z,12.40
2024-02-04T09:51:32.826Z,12.40
2024-02-04T09:54:07.475Z,12.40
2024-02-04T09:56:37.793Z,12.40
2024-02-04T09:59:06.679Z,12.40
2024-02-04T10:01:35.038Z,12.40
2024-02-04T10:04:04.827Z,12.40
2024-02-04T10:06:34.341Z,12.40
2024-02-04T10:09:03.138Z,12.40
2024-02-04T10:11:31.517Z,12.40
2024-02-04T10:14:00.616Z,12.40
2024-02-04T10:16:28.944Z,12.50
2024-02-04T10:18:57.787Z,12.40
2024-02-04T10:21:27.628Z,12.40
2024-02-04T10:23:56.801Z,12.50
2024-02-04T10:26:31.430Z,12.40
2024-02-04T10:29:00.218Z,12.40
2024-02-04T10:31:28.789Z,12.50
2024-02-04T10:33:57.497Z,12.50
2024-02-04T10:36:26.935Z,12.40
2024-02-04T10:38:55.402Z,12.50
2024-02-04T10:41:24.071Z,12.40
2024-02-04T10:43:55.020Z,12.40
2024-02-04T10:46:26.784Z,12.60
2024-02-04T10:48:59.755Z,12.40
2024-02-04T10:51:29.811Z,12.50
2024-02-04T10:53:58.176Z,12.50
2024-02-04T10:56:32.322Z,12.40
2024-02-04T10:59:03.965Z,12.50
2024-02-04T11:01:32.317Z,12.40
2024-02-04T11:04:01.887Z,12.40
2024-02-04T11:06:33.045Z,12.50
2024-02-04T11:09:02.152Z,12.50
2024-02-04T11:11:30.718Z,12.50
2024-02-04T11:14:06.557Z,12.50
2024-02-04T11:16:56.082Z,12.50
2024-02-04T11:19:38.799Z,12.50
2024-02-04T11:22:23.248Z,12.50
2024-02-04T11:25:05.608Z,12.50
2024-02-04T11:27:33.831Z,12.50
2024-02-04T11:30:02.059Z,12.60
2024-02-04T11:32:30.718Z,12.50
2024-02-04T11:35:02.256Z,12.50
2024-02-04T11:37:33.334Z,12.50
2024-02-04T11:40:01.694Z,12.50
2024-02-04T11:42:34.409Z,12.50
2024-02-04T11:45:14.214Z,12.50
2024-02-04T11:47:43.061Z,12.50
2024-02-04T11:50:12.764Z,12.60
2024-02-04T11:52:43.458Z,12.60
2024-02-04T11:55:17.845Z,12.60
2024-02-04T11:57:46.820Z,12.80
2024-02-04T12:00:18.055Z,12.60
2024-02-04T12:02:46.153Z,12.60
2024-02-04T12:05:15.075Z,12.60
2024-02-04T12:07:45.506Z,12.60
2024-02-04T12:10:14.637Z,12.50
2024-02-04T12:12:42.889Z,12.60
2024-02-04T12:15:12.720Z,12.60
2024-02-04T12:17:41.148Z,12.60
2024-02-04T12:20:10.318Z,12.60
2024-02-04T12:22:38.574Z,12.60
2024-02-04T12:25:09.038Z,12.60
2024-02-04T12:27:37.432Z,12.60
2024-02-04T12:30:07.362Z,12.60
2024-02-04T12:32:35.617Z,12.60
2024-02-04T12:35:03.753Z,12.60
2024-02-04T12:37:31.788Z,12.60
2024-02-04T12:40:00.633Z,12.60
2024-02-04T12:42:30.183Z,12.60
2024-02-04T12:44:59.658Z,12.60
2024-02-04T12:47:29.754Z,12.60
2024-02-04T12:50:03.487Z,12.60
2024-02-04T12:52:35.457Z,12.60
2024-02-04T12:55:03.653Z,12.60
2024-02-04T12:57:34.430Z,12.60
2024-02-04T13:00:11.686Z,12.60
2024-02-04T13:02:40.443Z,12.60
2024-02-04T13:05:09.157Z,12.60
2024-02-04T13:07:37.618Z,12.60
2024-02-04T13:10:06.968Z,12.60
2024-02-04T13:12:40.332Z,12.60
2024-02-04T13:15:09.267Z,12.60
2024-02-04T13:17:37.343Z,12.60
2024-02-04T13:20:06.212Z,12.60
2024-02-04T13:22:34.274Z,12.60
2024-02-04T13:25:02.365Z,12.60
2024-02-04T13:27:30.530Z,12.60
2024-02-04T13:30:00.086Z,12.60
2024-02-04T13:32:28.285Z,12.60
2024-02-04T13:35:05.699Z,12.60
2024-02-04T13:37:42.155Z,12.60
2024-02-04T13:40:11.840Z,12.60
2024-02-04T13:42:40.091Z,12.60
2024-02-04T13:45:10.759Z,12.60
2024-02-04T13:47:39.347Z,12.60
2024-02-04T13:50:09.657Z,12.60
2024-02-04T13:52:38.548Z,12.60
2024-02-04T13:55:08.309Z,12.60
2024-02-04T13:57:37.199Z,12.60
2024-02-04T14:00:07.832Z,12.60
2024-02-04T14:02:37.706Z,12.60
2024-02-04T14:05:07.020Z,12.60
2024-02-04T14:07:35.263Z,12.60
2024-02-04T14:10:03.427Z,12.60
2024-02-04T14:12:32.717Z,12.60
2024-02-04T14:15:00.816Z,12.60
2024-02-04T14:17:28.924Z,12.70
2024-02-04T14:19:59.856Z,12.90
2024-02-04T14:22:28.844Z,12.70
2024-02-04T14:24:57.070Z,12.70
2024-02-04T14:27:25.232Z,12.90
2024-02-04T14:29:53.327Z,12.80
2024-02-04T14:32:21.315Z,12.80
2024-02-04T14:34:49.642Z,12.70
2024-02-04T14:37:19.598Z,12.70
2024-02-04T14:39:47.831Z,12.70
2024-02-04T14:42:16.222Z,12.70
2024-02-04T14:44:44.982Z,12.70
2024-02-04T14:47:12.972Z,12.70
2024-02-04T14:49:41.023Z,12.70
2024-02-04T14:52:09.496Z,12.70
2024-02-04T14:54:39.268Z,12.70
2024-02-04T14:57:07.624Z,12.70
2024-02-04T14:59:38.366Z,12.70
2024-02-04T15:02:06.944Z,12.70
2024-02-04T15:04:36.031Z,12.70
2024-02-04T15:07:05.281Z,12.70
2024-02-04T15:09:34.210Z,12.70
2024-02-04T15:12:04.961Z,12.70
2024-02-04T15:14:33.737Z,12.70
2024-02-04T15:17:03.035Z,12.70
2024-02-04T15:19:33.662Z,12.80
2024-02-04T15:22:02.562Z,12.80
2024-02-04T15:24:31.313Z,12.80
2024-02-04T15:27:05.464Z,12.80
2024-02-04T15:29:37.423Z,12.70
2024-02-04T15:32:06.703Z,12.50
2024-02-04T15:34:36.327Z,12.80
2024-02-04T15:37:05.019Z,12.70
2024-02-04T15:39:34.665Z,12.80
2024-02-04T15:42:02.914Z,12.80
2024-02-04T15:44:31.094Z,12.80
2024-02-04T15:47:03.493Z,12.80
2024-02-04T15:49:31.942Z,12.80
2024-02-04T15:52:00.820Z,12.80
2024-02-04T15:54:29.742Z,12.80
2024-02-04T15:57:03.897Z,12.80
2024-02-04T15:59:42.922Z,12.80
2024-02-04T16:02:13.104Z,12.80
2024-02-04T16:04:42.087Z,12.80
2024-02-04T16:07:12.439Z,12.80
2024-02-04T16:09:42.130Z,12.80
2024-02-04T16:12:11.556Z,12.80
2024-02-04T16:14:44.009Z,12.80
2024-02-04T16:17:18.066Z,12.80
2024-02-04T16:19:47.588Z,12.80
2024-02-04T16:22:16.783Z,12.80
2024-02-04T16:24:45.454Z,13.00
2024-02-04T16:27:14.462Z,12.80
2024-02-04T16:29:43.173Z,12.80
2024-02-04T16:32:12.317Z,12.80
2024-02-04T16:34:42.212Z,12.80
2024-02-04T16:37:11.227Z,12.80
2024-02-04T16:39:39.953Z,12.80
2024-02-04T16:42:09.894Z,12.80
2024-02-04T16:44:38.212Z,12.80
2024-02-04T16:47:06.578Z,12.80
2024-02-04T16:49:34.817Z,12.80
2024-02-04T16:52:04.995Z,12.80
2024-02-04T16:54:33.132Z,12.80
2024-02-04T16:57:03.356Z,12.80
2024-02-04T16:59:31.735Z,12.80
2024-02-04T17:02:00.055Z,12.80
2024-02-04T17:04:28.914Z,12.80
2024-02-04T17:06:57.616Z,12.80
2024-02-04T17:09:27.889Z,12.80
2024-02-04T17:11:58.626Z,12.80
2024-02-04T17:14:27.303Z,12.70
2024-02-04T17:17:04.123Z,12.70
2024-02-04T17:19:42.218Z,12.70
2024-02-04T17:22:16.571Z,12.70
2024-02-04T17:24:51.055Z,12.70
2024-02-04T17:27:20.344Z,12.70
2024-02-04T17:29:51.217Z,12.70
2024-02-04T17:32:26.191Z,12.70
2024-02-04T17:34:55.767Z,12.70
2024-02-04T17:37:23.933Z,12.70
2024-02-04T17:39:53.432Z,12.70
2024-02-04T17:42:21.575Z,12.70
2024-02-04T17:44:50.369Z,12.70
2024-02-04T17:47:18.398Z,12.70
2024-02-04T17:49:48.368Z,12.70
2024-02-04T17:52:17.153Z,12.70
2024-02-04T17:54:46.190Z,12.70
2024-02-04T17:57:15.951Z,12.70
2024-02-04T17:59:44.152Z,12.70
2024-02-04T18:02:13.154Z,12.70
2024-02-04T18:04:41.481Z,12.70
2024-02-04T18:07:11.087Z,12.70
2024-02-04T18:09:42.571Z,12.70
2024-02-04T18:12:10.818Z,12.70
2024-02-04T18:14:41.399Z,12.70
2024-02-04T18:17:09.576Z,12.70
2024-02-04T18:19:37.845Z,12.70
2024-02-04T18:22:06.230Z,12.70
2024-02-04T18:24:38.396Z,12.70
2024-02-04T18:27:06.987Z,12.70
2024-02-04T18:29:35.493Z,12.70
2024-02-04T18:32:05.886Z,12.70
2024-02-04T18:34:34.262Z,12.70
2024-02-04T18:37:02.683Z,12.70
2024-02-04T18:39:31.805Z,12.70
2024-02-04T18:42:00.451Z,12.70
2024-02-04T18:44:28.994Z,12.70
2024-02-04T18:46:57.074Z,12.70
2024-02-04T18:49:27.919Z,12.70
2024-02-04T18:51:56.263Z,12.70
2024-02-04T18:54:25.528Z,12.70
2024-02-04T18:56:53.698Z,12.70
2024-02-04T18:59:21.956Z,12.70
2024-02-04T19:01:50.869Z,12.70
2024-02-04T19:04:19.967Z,12.70
2024-02-04T19:06:51.054Z,12.70
2024-02-04T19:09:19.221Z,12.70
2024-02-04T19:11:48.377Z,12.70
2024-02-04T19:14:21.068Z,12.70
2024-02-04T19:16:49.597Z,12.70
2024-02-04T19:19:17.771Z,12.70
2024-02-04T19:21:47.515Z,12.60
2024-02-04T19:24:18.564Z,13.00
2024-02-04T19:26:48.081Z,12.60
2024-02-04T19:29:17.420Z,12.70
2024-02-04T19:31:46.525Z,12.70
2024-02-04T19:34:14.841Z,12.70
2024-02-04T19:36:45.688Z,12.70
2024-02-04T19:39:17.268Z,12.60
2024-02-04T19:41:45.502Z,12.70
2024-02-04T19:44:13.694Z,12.70
2024-02-04T19:46:42.046Z,12.60
2024-02-04T19:49:11.780Z,12.60
2024-02-04T19:51:40.135Z,12.60
2024-02-04T19:54:08.251Z,12.50
2024-02-04T19:56:38.864Z,12.60
2024-02-04T19:59:07.875Z,12.60
2024-02-04T20:01:36.119Z,12.60
2024-02-04T20:04:04.505Z,12.60
2024-02-04T20:06:32.957Z,12.60
2024-02-04T20:09:01.434Z,12.60
2024-02-04T20:11:33.511Z,12.60
2024-02-04T20:14:04.737Z,12.60
2024-02-04T20:16:33.044Z,12.60
2024-02-04T20:19:05.010Z,12.60
2024-02-04T20:21:35.686Z,12.60
2024-02-04T20:24:05.447Z,12.60
2024-02-04T20:26:33.951Z,12.60
2024-02-04T20:29:04.142Z,12.60
2024-02-04T20:31:32.380Z,12.50
2024-02-04T20:34:01.079Z,12.60
2024-02-04T20:36:29.301Z,12.60
2024-02-04T20:38:57.504Z,12.60
2024-02-04T20:41:25.959Z,12.60
2024-02-04T20:43:55.123Z,12.60
2024-02-04T20:46:25.050Z,12.50
2024-02-04T20:48:53.466Z,12.50
2024-02-04T20:51:24.173Z,12.60
2024-02-04T20:53:54.161Z,12.60
2024-02-04T20:56:22.441Z,12.60
2024-02-04T20:58:50.535Z,12.50
2024-02-04T21:01:19.200Z,12.60
2024-02-04T21:03:48.743Z,12.60
2024-02-04T21:06:18.426Z,12.60
2024-02-04T21:08:46.896Z,12.50
2024-02-04T21:11:21.904Z,12.60
2024-02-04T21:13:50.254Z,12.60
2024-02-04T21:16:19.146Z,12.60
2024-02-04T21:18:49.140Z,12.60
2024-02-04T21:21:17.501Z,12.50
2024-02-04T21:23:46.387Z,12.50
2024-02-04T21:26:14.677Z,12.60
2024-02-04T21:28:44.100Z,12.60
2024-02-04T21:31:13.158Z,12.60
2024-02-04T21:33:42.738Z,12.50
2024-02-04T21:36:12.978Z,12.60
2024-02-04T21:38:41.609Z,12.60
2024-02-04T21:41:09.667Z,12.60
2024-02-04T21:43:37.851Z,12.60
2024-02-04T21:46:06.177Z,12.60
2024-02-04T21:48:34.461Z,12.60
2024-02-04T21:51:04.533Z,12.60
2024-02-04T21:53:33.994Z,12.60
2024-02-04T21:56:02.420Z,12.60
2024-02-04T21:58:31.027Z,12.60
2024-02-04T22:00:59.821Z,12.60
2024-02-04T22:03:27.977Z,12.60
2024-02-04T22:05:56.139Z,12.60
2024-02-04T22:08:24.690Z,12.60
2024-02-04T22:10:54.188Z,12.60
2024-02-04T22:13:22.360Z,12.60
2024-02-04T22:15:50.560Z,12.60
2024-02-04T22:18:18.907Z,12.60
2024-02-04T22:20:47.104Z,12.60
2024-02-04T22:23:15.599Z,12.60
2024-02-04T22:25:43.654Z,12.80
2024-02-04T22:28:13.353Z,12.60
2024-02-04T22:30:43.808Z,12.70
2024-02-04T22:33:12.084Z,12.60
2024-02-04T22:35:40.182Z,12.60
2024-02-04T22:38:08.271Z,12.60
2024-02-04T22:40:36.545Z,12.60
2024-02-04T22:43:05.366Z,12.60
2024-02-04T22:45:34.877Z,12.60
2024-02-04T22:48:03.518Z,12.60
2024-02-04T22:50:32.490Z,12.60
2024-02-04T22:53:00.544Z,12.60
2024-02-04T22:55:28.677Z,12.60
2024-02-04T22:57:57.079Z,12.60
2024-02-04T23:00:29.899Z,12.60
2024-02-04T23:03:00.827Z,12.60
2024-02-04T23:05:29.215Z,12.70
2024-02-04T23:07:59.538Z,12.60
2024-02-04T23:10:28.726Z,12.60
2024-02-04T23:12:58.695Z,12.60
2024-02-04T23:15:27.176Z,12.60
2024-02-04T23:17:55.410Z,12.60
2024-02-04T23:20:25.164Z,12.70
2024-02-04T23:22:53.385Z,12.60
2024-02-04T23:25:25.473Z,12.60
2024-02-04T23:27:55.538Z,12.60
2024-02-04T23:30:23.979Z,12.70
2024-02-04T23:32:52.040Z,12.70
2024-02-04T23:35:20.473Z,12.70
2024-02-04T23:37:50.338Z,12.70
2024-02-04T23:40:18.998Z,12.70
2024-02-04T23:42:47.127Z,12.60
2024-02-04T23:45:15.234Z,12.70
2024-02-04T23:47:43.543Z,12.60
2024-02-04T23:50:12.465Z,12.60
2024-02-04T23:52:41.245Z,12.60
2024-02-04T23:55:11.213Z,12.70
2024-02-04T23:57:41.120Z,12.90
